CYRT

Rankin Inlet Airport

Rankin Inlet, Canada
METAR CYRT 170000Z 33008KT 30SM FEW270 21/06 A2986 RMK CI1 SLP116 DENSITY ALT 900FT
Observed Flight Rules
Jul-17 @ 00:00 UTC (24 minutes ago) Visual Flight Rules
Wind Visibility Clouds
330° at 8 knots 30 miles
  • Few at 27,000' AGL
Temperatures Readings
Current 21°C / 70°F
Dewpoint 6°C / 43°F
Humidity 38%
Altimeter 29.86" Hg
Pressure 1011.6 hPa
Elevation 32
METAR CYRT 170000Z 33008KT 30SM FEW270 21/06 A2986 RMK CI1 SLP116 DENSITY ALT 900FT
Observed Flight Rules
Jul-17 @ 00:00 UTC
(24 minutes ago)
VFR
Wind Visibility
330° at 8 knots 30 miles
Clouds
  • Few at 27,000' AGL
Temperature Dewpoint
21°C / 70°F 6°C / 43°F
Humidity Altimeter Pressure
38% 29.86" Hg 1011.6 hPa